Wetterdaten: Woche 03.08.15 - 09.08.15 (KW32)
Datum Zeit Temperatur Luftfeuchte Luftdruck Niederschlag Windrichtung Sonnenschein Solar Wind
03.08.2015 00:00 15,2 C 84 % 1015,3 hPa 0,0 l/m O-SO 0,00 h 0 W/m 0,9 km/h (0 Bft)
03.08.2015 01:00 14,6 C 87 % 1015,3 hPa 0,0 l/m N 0,00 h 0 W/m 0,4 km/h (0 Bft)
03.08.2015 02:00 14,0 C 89 % 1015,0 hPa 0,0 l/m N 0,00 h 0 W/m 0,1 km/h (0 Bft)
03.08.2015 03:00 13,4 C 91 % 1014,8 hPa 0,0 l/m N 0,00 h 0 W/m 0,4 km/h (0 Bft)
03.08.2015 04:00 12,9 C 92 % 1015,0 hPa 0,0 l/m O-SO 0,00 h 0 W/m 1,1 km/h (0 Bft)
03.08.2015 05:00 12,2 C 93 % 1014,8 hPa 0,0 l/m N 0,00 h 5 W/m 0,0 km/h (0 Bft)
03.08.2015 06:00 12,0 C 95 % 1015,2 hPa 0,0 l/m N 0,00 h 23 W/m 0,0 km/h (0 Bft)
03.08.2015 07:00 14,3 C 90 % 1015,6 hPa 0,0 l/m N 0,50 h 130 W/m 0,0 km/h (0 Bft)
03.08.2015 08:00 17,4 C 81 % 1015,9 hPa 0,0 l/m N 1,00 h 300 W/m 0,0 km/h (0 Bft)
03.08.2015 09:00 19,8 C 79 % 1016,0 hPa 0,0 l/m S-SO 1,00 h 463 W/m 7,8 km/h (2 Bft)
03.08.2015 10:00 21,9 C 72 % 1016,0 hPa 0,0 l/m S 1,00 h 617 W/m 9,0 km/h (2 Bft)
03.08.2015 11:00 23,4 C 67 % 1015,8 hPa 0,0 l/m S 1,00 h 741 W/m 10,5 km/h (2 Bft)
03.08.2015 12:00 25,1 C 62 % 1015,5 hPa 0,0 l/m SW 1,00 h 835 W/m 11,7 km/h (2 Bft)
03.08.2015 13:00 26,8 C 53 % 1015,0 hPa 0,0 l/m W 1,00 h 867 W/m 15,0 km/h (3 Bft)
03.08.2015 14:00 28,0 C 48 % 1014,7 hPa 0,0 l/m W-SW 1,00 h 848 W/m 16,4 km/h (3 Bft)
03.08.2015 15:00 29,2 C 43 % 1014,3 hPa 0,0 l/m W-SW 1,00 h 783 W/m 15,2 km/h (3 Bft)
03.08.2015 16:00 29,8 C 41 % 1013,8 hPa 0,0 l/m SW 1,00 h 683 W/m 12,1 km/h (2 Bft)
03.08.2015 17:00 29,9 C 38 % 1013,4 hPa 0,0 l/m SW 1,00 h 540 W/m 10,3 km/h (2 Bft)
03.08.2015 18:00 29,8 C 38 % 1013,0 hPa 0,0 l/m SW 1,00 h 372 W/m 11,3 km/h (2 Bft)
03.08.2015 19:00 28,0 C 44 % 1012,8 hPa 0,0 l/m SW 0,75 h 159 W/m 6,3 km/h (2 Bft)
03.08.2015 20:00 23,7 C 63 % 1012,8 hPa 0,0 l/m N 0,00 h 14 W/m 0,0 km/h (0 Bft)
03.08.2015 21:00 20,5 C 72 % 1013,2 hPa 0,0 l/m N 0,00 h 0 W/m 0,0 km/h (0 Bft)
03.08.2015 22:00 19,1 C 75 % 1013,1 hPa 0,0 l/m N 0,00 h 0 W/m 0,0 km/h (0 Bft)
03.08.2015 23:00 17,9 C 79 % 1012,9 hPa 0,0 l/m N 0,00 h 0 W/m 0,0 km/h (0 Bft)
04.08.2015 00:00 17,1 C 83 % 1012,8 hPa 0,0 l/m N 0,00 h 0 W/m 0,0 km/h (0 Bft)
04.08.2015 01:00 16,4 C 86 % 1012,6 hPa 0,0 l/m SW 0,00 h 0 W/m 0,7 km/h (0 Bft)
04.08.2015 02:00 16,0 C 87 % 1012,3 hPa 0,0 l/m N 0,00 h 0 W/m 0,9 km/h (0 Bft)
04.08.2015 03:00 15,2 C 90 % 1012,3 hPa 0,0 l/m N 0,00 h 0 W/m 0,0 km/h (0 Bft)
04.08.2015 04:00 14,6 C 91 % 1012,0 hPa 0,0 l/m N 0,00 h 0 W/m 0,0 km/h (0 Bft)
04.08.2015 05:00 14,1 C 93 % 1011,7 hPa 0,0 l/m N 0,00 h 6 W/m 0,0 km/h (0 Bft)
04.08.2015 06:00 14,0 C 94 % 1011,6 hPa 0,0 l/m N 0,00 h 29 W/m 0,0 km/h (0 Bft)
04.08.2015 07:00 16,2 C 89 % 1011,6 hPa 0,0 l/m N 0,33 h 113 W/m 0,0 km/h (0 Bft)
04.08.2015 08:00 18,9 C 81 % 1011,3 hPa 0,0 l/m SW 0,75 h 254 W/m 0,5 km/h (0 Bft)
04.08.2015 09:00 21,5 C 76 % 1011,1 hPa 0,0 l/m SW 0,67 h 362 W/m 4,3 km/h (1 Bft)
04.08.2015 10:00 23,5 C 72 % 1011,4 hPa 0,0 l/m S-SW 0,75 h 445 W/m 3,6 km/h (1 Bft)
04.08.2015 11:00 25,3 C 65 % 1011,6 hPa 0,0 l/m W-SW 0,42 h 393 W/m 17,6 km/h (3 Bft)
04.08.2015 12:00 26,6 C 59 % 1011,8 hPa 0,0 l/m W-SW 1,00 h 814 W/m 24,0 km/h (4 Bft)
04.08.2015 13:00 27,1 C 58 % 1012,2 hPa 0,0 l/m W 0,42 h 484 W/m 24,9 km/h (4 Bft)
04.08.2015 14:00 26,0 C 57 % 1012,8 hPa 0,0 l/m W-NW 0,25 h 406 W/m 22,4 km/h (4 Bft)
04.08.2015 15:00 24,1 C 61 % 1013,5 hPa 0,0 l/m W-NW 0,00 h 184 W/m 20,5 km/h (4 Bft)
04.08.2015 16:00 23,3 C 62 % 1013,8 hPa 0,0 l/m W-NW 0,00 h 153 W/m 15,6 km/h (3 Bft)
04.08.2015 17:00 22,3 C 68 % 1013,9 hPa 0,0 l/m W-SW 0,00 h 117 W/m 10,2 km/h (2 Bft)
04.08.2015 18:00 22,9 C 64 % 1014,0 hPa 0,0 l/m W-SW 0,58 h 291 W/m 15,6 km/h (3 Bft)
04.08.2015 19:00 22,7 C 63 % 1014,0 hPa 0,0 l/m W-SW 0,42 h 115 W/m 15,3 km/h (3 Bft)
04.08.2015 20:00 20,9 C 71 % 1014,6 hPa 0,0 l/m W-SW 0,00 h 15 W/m 7,0 km/h (2 Bft)
04.08.2015 21:00 20,0 C 75 % 1015,5 hPa 0,0 l/m W-SW 0,00 h 0 W/m 3,5 km/h (1 Bft)
04.08.2015 22:00 20,0 C 77 % 1015,9 hPa 0,0 l/m W-SW 0,00 h 0 W/m 6,0 km/h (2 Bft)
04.08.2015 23:00 19,2 C 80 % 1016,3 hPa 0,0 l/m N-NW 0,00 h 0 W/m 5,4 km/h (1 Bft)
05.08.2015 00:00 17,6 C 85 % 1016,7 hPa 0,0 l/m N 0,00 h 0 W/m 0,5 km/h (0 Bft)
05.08.2015 01:00 17,0 C 87 % 1016,7 hPa 0,0 l/m N 0,00 h 0 W/m 0,4 km/h (0 Bft)
05.08.2015 02:00 15,9 C 91 % 1016,6 hPa 0,0 l/m N 0,00 h 0 W/m 0,0 km/h (0 Bft)
05.08.2015 03:00 15,1 C 94 % 1016,3 hPa 0,0 l/m N 0,00 h 0 W/m 0,1 km/h (0 Bft)
05.08.2015 04:00 14,6 C 95 % 1016,1 hPa 0,0 l/m N 0,00 h 0 W/m 0,0 km/h (0 Bft)
05.08.2015 05:00 14,2 C 96 % 1015,8 hPa 0,0 l/m N 0,00 h 0 W/m 0,3 km/h (0 Bft)
05.08.2015 06:00 14,3 C 97 % 1015,9 hPa 0,0 l/m N-NW 0,00 h 17 W/m 1,3 km/h (1 Bft)
05.08.2015 07:00 15,5 C 95 % 1016,1 hPa 0,0 l/m N-NW 0,25 h 112 W/m 4,4 km/h (1 Bft)
05.08.2015 08:00 17,8 C 87 % 1016,2 hPa 0,0 l/m NO 1,00 h 273 W/m 10,9 km/h (2 Bft)
05.08.2015 09:00 19,8 C 80 % 1016,1 hPa 0,0 l/m O-SO 1,00 h 461 W/m 15,2 km/h (3 Bft)
05.08.2015 10:00 21,5 C 74 % 1016,0 hPa 0,0 l/m O-SO 0,83 h 542 W/m 14,5 km/h (3 Bft)
05.08.2015 11:00 22,7 C 71 % 1015,6 hPa 0,0 l/m O-SO 1,00 h 727 W/m 12,6 km/h (3 Bft)
05.08.2015 12:00 24,5 C 66 % 1015,1 hPa 0,0 l/m O-SO 1,00 h 804 W/m 13,0 km/h (3 Bft)
05.08.2015 13:00 26,0 C 60 % 1014,6 hPa 0,0 l/m O-SO 1,00 h 835 W/m 11,4 km/h (2 Bft)
05.08.2015 14:00 27,4 C 55 % 1013,7 hPa 0,0 l/m O 1,00 h 827 W/m 12,5 km/h (3 Bft)
05.08.2015 15:00 29,2 C 46 % 1013,0 hPa 0,0 l/m O-SO 1,00 h 767 W/m 11,4 km/h (2 Bft)
05.08.2015 16:00 29,8 C 44 % 1012,5 hPa 0,0 l/m O 1,00 h 665 W/m 9,4 km/h (2 Bft)
05.08.2015 17:00 30,5 C 43 % 1012,0 hPa 0,0 l/m S-SO 1,00 h 525 W/m 4,4 km/h (1 Bft)
05.08.2015 18:00 30,1 C 43 % 1011,6 hPa 0,0 l/m SO 1,00 h 353 W/m 6,1 km/h (2 Bft)
05.08.2015 19:00 29,1 C 44 % 1011,8 hPa 0,0 l/m SO 0,75 h 147 W/m 4,5 km/h (1 Bft)
05.08.2015 20:00 24,7 C 65 % 1012,1 hPa 0,0 l/m N 0,00 h 15 W/m 0,3 km/h (0 Bft)
05.08.2015 21:00 21,5 C 73 % 1012,7 hPa 0,0 l/m N 0,00 h 0 W/m 0,0 km/h (0 Bft)
05.08.2015 22:00 20,3 C 78 % 1012,9 hPa 0,0 l/m N 0,00 h 0 W/m 0,7 km/h (0 Bft)
05.08.2015 23:00 19,3 C 81 % 1013,1 hPa 0,0 l/m N 0,00 h 0 W/m 0,0 km/h (0 Bft)
06.08.2015 00:00 18,2 C 85 % 1013,2 hPa 0,0 l/m N 0,00 h 0 W/m 0,0 km/h (0 Bft)
06.08.2015 01:00 17,2 C 89 % 1013,2 hPa 0,0 l/m N 0,00 h 0 W/m 0,1 km/h (0 Bft)
06.08.2015 02:00 16,5 C 90 % 1013,3 hPa 0,0 l/m N 0,00 h 0 W/m 0,0 km/h (0 Bft)
06.08.2015 03:00 15,5 C 93 % 1013,3 hPa 0,0 l/m N 0,00 h 0 W/m 0,3 km/h (0 Bft)
06.08.2015 04:00 15,1 C 94 % 1013,3 hPa 0,0 l/m N 0,00 h 0 W/m 0,0 km/h (0 Bft)
06.08.2015 05:00 14,8 C 95 % 1013,3 hPa 0,0 l/m N 0,00 h 0 W/m 0,0 km/h (0 Bft)
06.08.2015 06:00 14,8 C 96 % 1013,5 hPa 0,0 l/m N 0,08 h 17 W/m 0,0 km/h (0 Bft)
06.08.2015 07:00 16,7 C 92 % 1013,6 hPa 0,0 l/m N 0,33 h 115 W/m 0,0 km/h (0 Bft)
06.08.2015 08:00 20,4 C 79 % 1014,2 hPa 0,0 l/m N 1,00 h 280 W/m 0,0 km/h (0 Bft)
06.08.2015 09:00 23,1 C 73 % 1014,2 hPa 0,0 l/m N 0,92 h 411 W/m 0,0 km/h (0 Bft)
06.08.2015 10:00 25,6 C 66 % 1014,2 hPa 0,0 l/m N 0,92 h 559 W/m 0,0 km/h (0 Bft)
06.08.2015 11:00 27,7 C 58 % 1014,2 hPa 0,0 l/m N 1,00 h 697 W/m 0,5 km/h (0 Bft)
06.08.2015 12:00 29,9 C 52 % 1013,8 hPa 0,0 l/m SO 1,00 h 786 W/m 8,4 km/h (2 Bft)
06.08.2015 13:00 31,4 C 48 % 1013,3 hPa 0,0 l/m S-SW 1,00 h 809 W/m 10,5 km/h (2 Bft)
06.08.2015 14:00 32,5 C 44 % 1012,9 hPa 0,0 l/m S-SO 1,00 h 786 W/m 13,6 km/h (3 Bft)
06.08.2015 15:00 33,7 C 36 % 1012,7 hPa 0,0 l/m S-SO 1,00 h 718 W/m 14,4 km/h (3 Bft)
06.08.2015 16:00 34,0 C 33 % 1012,4 hPa 0,0 l/m S-SO 1,00 h 646 W/m 13,0 km/h (3 Bft)
06.08.2015 17:00 33,4 C 34 % 1012,3 hPa 0,0 l/m S-SW 0,75 h 455 W/m 10,5 km/h (2 Bft)
06.08.2015 18:00 32,1 C 40 % 1012,1 hPa 0,0 l/m SW 0,92 h 297 W/m 5,2 km/h (1 Bft)
06.08.2015 19:00 29,8 C 52 % 1012,0 hPa 0,0 l/m N 0,67 h 132 W/m 0,5 km/h (0 Bft)
06.08.2015 20:00 25,8 C 63 % 1012,1 hPa 0,0 l/m N 0,00 h 15 W/m 0,3 km/h (0 Bft)
06.08.2015 21:00 23,6 C 67 % 1012,5 hPa 0,0 l/m N 0,00 h 0 W/m 0,1 km/h (0 Bft)
06.08.2015 22:00 22,1 C 72 % 1012,6 hPa 0,0 l/m SW 0,00 h 0 W/m 0,5 km/h (0 Bft)
06.08.2015 23:00 21,4 C 73 % 1012,6 hPa 0,0 l/m SW 0,00 h 0 W/m 2,5 km/h (1 Bft)
07.08.2015 00:00 20,8 C 75 % 1012,7 hPa 0,0 l/m N 0,00 h 0 W/m 0,9 km/h (0 Bft)
07.08.2015 01:00 20,0 C 78 % 1012,4 hPa 0,0 l/m N 0,00 h 0 W/m 0,0 km/h (0 Bft)
07.08.2015 02:00 19,5 C 78 % 1012,0 hPa 0,0 l/m N 0,00 h 0 W/m 0,3 km/h (0 Bft)
07.08.2015 03:00 19,0 C 80 % 1011,9 hPa 0,0 l/m N 0,00 h 0 W/m 0,8 km/h (0 Bft)
07.08.2015 04:00 18,1 C 84 % 1011,8 hPa 0,0 l/m N 0,00 h 0 W/m 0,0 km/h (0 Bft)
07.08.2015 05:00 17,3 C 87 % 1011,8 hPa 0,0 l/m N 0,00 h 0 W/m 0,0 km/h (0 Bft)
07.08.2015 06:00 17,0 C 89 % 1012,0 hPa 0,0 l/m N 0,00 h 16 W/m 0,0 km/h (0 Bft)
07.08.2015 07:00 19,1 C 84 % 1012,1 hPa 0,0 l/m SW 0,25 h 108 W/m 0,8 km/h (0 Bft)
07.08.2015 08:00 22,5 C 72 % 1012,3 hPa 0,0 l/m N 0,92 h 265 W/m 0,4 km/h (0 Bft)
07.08.2015 09:00 25,3 C 62 % 1012,5 hPa 0,0 l/m SW 1,00 h 433 W/m 4,1 km/h (1 Bft)
07.08.2015 10:00 27,4 C 57 % 1012,6 hPa 0,0 l/m S 0,92 h 553 W/m 9,0 km/h (2 Bft)
07.08.2015 11:00 29,1 C 54 % 1012,6 hPa 0,0 l/m S-SO 1,00 h 694 W/m 9,7 km/h (2 Bft)
07.08.2015 12:00 30,4 C 52 % 1012,4 hPa 0,0 l/m S-SW 1,00 h 777 W/m 14,5 km/h (3 Bft)
07.08.2015 13:00 32,1 C 46 % 1012,1 hPa 0,0 l/m S-SW 1,00 h 819 W/m 11,6 km/h (2 Bft)
07.08.2015 14:00 33,6 C 39 % 1011,8 hPa 0,0 l/m SO 0,92 h 765 W/m 12,8 km/h (3 Bft)
07.08.2015 15:00 34,4 C 36 % 1011,6 hPa 0,0 l/m S 1,00 h 729 W/m 11,3 km/h (2 Bft)
07.08.2015 16:00 35,0 C 36 % 1011,6 hPa 0,0 l/m O-SO 1,00 h 635 W/m 10,9 km/h (2 Bft)
07.08.2015 17:00 34,6 C 36 % 1011,5 hPa 0,0 l/m SW 1,00 h 480 W/m 9,6 km/h (2 Bft)
07.08.2015 18:00 33,7 C 38 % 1011,0 hPa 0,0 l/m W-SW 1,00 h 329 W/m 4,7 km/h (1 Bft)
07.08.2015 19:00 31,2 C 49 % 1011,0 hPa 0,0 l/m N 0,67 h 127 W/m 0,3 km/h (0 Bft)
07.08.2015 20:00 27,4 C 62 % 1011,2 hPa 0,0 l/m N 0,00 h 16 W/m 0,0 km/h (0 Bft)
07.08.2015 21:00 24,8 C 66 % 1011,4 hPa 0,0 l/m N 0,00 h 0 W/m 1,1 km/h (0 Bft)
07.08.2015 22:00 23,4 C 67 % 1011,6 hPa 0,0 l/m N 0,00 h 0 W/m 0,4 km/h (0 Bft)
07.08.2015 23:00 21,7 C 74 % 1011,7 hPa 0,0 l/m N 0,00 h 0 W/m 0,0 km/h (0 Bft)
08.08.2015 00:00 20,7 C 78 % 1012,2 hPa 0,0 l/m N 0,00 h 0 W/m 0,0 km/h (0 Bft)
08.08.2015 01:00 19,7 C 81 % 1012,1 hPa 0,0 l/m N 0,00 h 0 W/m 0,0 km/h (0 Bft)
08.08.2015 02:00 19,1 C 83 % 1012,2 hPa 0,0 l/m W-NW 0,00 h 0 W/m 5,8 km/h (2 Bft)
08.08.2015 03:00 22,3 C 65 % 1012,6 hPa 0,0 l/m N-NW 0,00 h 0 W/m 13,8 km/h (3 Bft)
08.08.2015 04:00 20,0 C 74 % 1013,4 hPa 0,0 l/m S-SW 0,00 h 0 W/m 8,3 km/h (2 Bft)
08.08.2015 05:00 19,6 C 77 % 1013,9 hPa 0,0 l/m S-SW 0,00 h 0 W/m 4,1 km/h (1 Bft)
08.08.2015 06:00 18,2 C 86 % 1013,6 hPa 0,0 l/m N 0,00 h 24 W/m 0,0 km/h (0 Bft)
08.08.2015 07:00 20,8 C 78 % 1014,0 hPa 0,0 l/m W 0,58 h 118 W/m 2,0 km/h (1 Bft)
08.08.2015 08:00 22,9 C 73 % 1014,4 hPa 0,0 l/m W-SW 0,92 h 247 W/m 3,7 km/h (1 Bft)
08.08.2015 09:00 25,3 C 63 % 1014,5 hPa 0,0 l/m N 1,00 h 419 W/m 4,4 km/h (1 Bft)
08.08.2015 10:00 27,1 C 54 % 1014,9 hPa 0,0 l/m W-SW 0,92 h 551 W/m 2,8 km/h (1 Bft)
08.08.2015 11:00 28,9 C 48 % 1014,9 hPa 0,0 l/m SO 1,00 h 698 W/m 6,4 km/h (2 Bft)
08.08.2015 12:00 30,3 C 44 % 1014,8 hPa 0,0 l/m O-SO 0,92 h 764 W/m 9,3 km/h (2 Bft)
08.08.2015 13:00 31,2 C 42 % 1014,4 hPa 0,0 l/m O-NO 0,92 h 777 W/m 9,4 km/h (2 Bft)
08.08.2015 14:00 32,5 C 38 % 1013,7 hPa 0,0 l/m O 0,83 h 671 W/m 11,3 km/h (2 Bft)
08.08.2015 15:00 33,3 C 34 % 1013,0 hPa 0,0 l/m W-NW 1,00 h 744 W/m 8,0 km/h (2 Bft)
08.08.2015 16:00 33,5 C 33 % 1012,9 hPa 0,0 l/m O-NO 0,58 h 399 W/m 8,3 km/h (2 Bft)
08.08.2015 17:00 30,2 C 43 % 1013,0 hPa 0,0 l/m W-NW 0,00 h 122 W/m 16,4 km/h (3 Bft)
08.08.2015 18:00 30,8 C 43 % 1013,0 hPa 0,0 l/m N-NO 0,58 h 273 W/m 14,6 km/h (3 Bft)
08.08.2015 19:00 29,2 C 49 % 1013,1 hPa 0,0 l/m N-NO 0,17 h 74 W/m 10,1 km/h (2 Bft)
08.08.2015 20:00 28,1 C 53 % 1013,6 hPa 0,0 l/m N 0,00 h 21 W/m 12,4 km/h (3 Bft)
08.08.2015 21:00 26,6 C 56 % 1014,2 hPa 0,0 l/m N 0,00 h 0 W/m 12,2 km/h (2 Bft)
08.08.2015 22:00 24,9 C 62 % 1014,1 hPa 0,0 l/m N 0,00 h 0 W/m 5,6 km/h (1 Bft)
08.08.2015 23:00 23,1 C 69 % 1014,2 hPa 0,0 l/m N-NW 0,00 h 0 W/m 3,6 km/h (1 Bft)
09.08.2015 00:00 23,0 C 67 % 1014,2 hPa 0,0 l/m N-NW 0,00 h 0 W/m 9,1 km/h (2 Bft)
09.08.2015 01:00 22,2 C 70 % 1013,7 hPa 0,0 l/m N-NW 0,00 h 0 W/m 8,3 km/h (2 Bft)
09.08.2015 02:00 21,2 C 75 % 1013,6 hPa 0,0 l/m N-NW 0,00 h 0 W/m 1,7 km/h (1 Bft)
09.08.2015 03:00 20,4 C 79 % 1013,4 hPa 0,0 l/m N 0,00 h 0 W/m 0,5 km/h (0 Bft)
09.08.2015 04:00 20,1 C 81 % 1012,6 hPa 0,0 l/m N-NW 0,00 h 0 W/m 6,5 km/h (2 Bft)
09.08.2015 05:00 19,3 C 83 % 1012,3 hPa 0,0 l/m N-NW 0,00 h 0 W/m 1,7 km/h (1 Bft)
09.08.2015 06:00 18,3 C 87 % 1012,3 hPa 0,0 l/m N-NW 0,00 h 13 W/m 1,3 km/h (1 Bft)
09.08.2015 07:00 19,4 C 83 % 1012,3 hPa 0,0 l/m N-NW 0,17 h 95 W/m 6,7 km/h (2 Bft)
09.08.2015 08:00 21,5 C 76 % 1011,9 hPa 0,0 l/m N-NO 1,00 h 262 W/m 11,7 km/h (2 Bft)
09.08.2015 09:00 23,4 C 67 % 1012,0 hPa 0,0 l/m O-NO 1,00 h 428 W/m 10,9 km/h (2 Bft)
09.08.2015 10:00 25,8 C 59 % 1011,8 hPa 0,0 l/m O-NO 0,92 h 556 W/m 13,0 km/h (3 Bft)
09.08.2015 11:00 28,2 C 50 % 1011,7 hPa 0,0 l/m O-SO 1,00 h 703 W/m 14,9 km/h (3 Bft)
09.08.2015 12:00 29,8 C 46 % 1011,3 hPa 0,0 l/m O-SO 1,00 h 794 W/m 14,1 km/h (3 Bft)
09.08.2015 13:00 31,0 C 43 % 1011,1 hPa 0,0 l/m O-NO 1,00 h 837 W/m 11,8 km/h (2 Bft)
09.08.2015 14:00 32,3 C 40 % 1010,8 hPa 0,0 l/m NO 1,00 h 813 W/m 12,0 km/h (2 Bft)
09.08.2015 15:00 33,0 C 39 % 1010,4 hPa 0,0 l/m O-SO 0,75 h 635 W/m 9,9 km/h (2 Bft)
09.08.2015 16:00 33,2 C 39 % 1009,7 hPa 0,0 l/m W-SW 1,00 h 641 W/m 10,1 km/h (2 Bft)
09.08.2015 17:00 31,8 C 45 % 1009,2 hPa 0,0 l/m W 0,33 h 244 W/m 11,5 km/h (2 Bft)
09.08.2015 18:00 26,9 C 58 % 1009,9 hPa 0,0 l/m W-NW 0,00 h 22 W/m 21,6 km/h (4 Bft)
09.08.2015 19:00 22,9 C 72 % 1010,8 hPa 0,0 l/m W-NW 0,00 h 9 W/m 23,4 km/h (4 Bft)
09.08.2015 20:00 21,4 C 78 % 1011,3 hPa 0,0 l/m SW 0,00 h 10 W/m 15,7 km/h (3 Bft)
09.08.2015 21:00 20,5 C 88 % 1012,6 hPa 0,2 l/m W-SW 0,00 h 0 W/m 10,5 km/h (2 Bft)
09.08.2015 22:00 19,8 C 92 % 1013,4 hPa 7,6 l/m W-SW 0,00 h 0 W/m 16,0 km/h (3 Bft)
09.08.2015 23:00 18,7 C 96 % 1014,0 hPa 20,8 l/m W 0,00 h 0 W/m 13,7 km/h (3 Bft)
Min-Datum _ 03.08.15 06.08.15 09.08.15 - - - - 03.08.15
_ Min-Zeit 05:55 16:40 17:30 - - - - 00:00
Minimum _ 11,8 C 31 % 1009,0 hPa - - - - 0,0 km/h (0 Bft)
Max-Datum _ 07.08.15 05.08.15 05.08.15 09.08.15 - 03.08.15 04.08.15 09.08.15
_ Max-Zeit 16:30 06:05 00:30 23:10 - 07:30 13:10 23:00
Maximum _ 35,3 C 97 % 1016,9 hPa 20,8 l/m - 0,08 h 1027 W/m 35,4 km/h
W (5 Bft)
Durchschnitt _ 23,2 C 68 % 1013,2 hPa #28,6 l/m W-SW #71:30 h 412 W/m 6,4 km/h (2 Bft)